sensor_id;sensor_type;location;lat;lon;timestamp;P1;durP1;ratioP1;P2;durP2;ratioP2
75603;SDS011;64187;51.010;13.792;2023-08-12T00:01:24;8.32;;;5.10;;
75603;SDS011;64187;51.010;13.792;2023-08-12T00:06:24;6.93;;;4.20;;
75603;SDS011;64187;51.010;13.792;2023-08-12T00:11:23;4.43;;;4.03;;
75603;SDS011;64187;51.010;13.792;2023-08-12T00:16:21;4.30;;;3.90;;
75603;SDS011;64187;51.010;13.792;2023-08-12T00:21:20;5.00;;;4.25;;
75603;SDS011;64187;51.010;13.792;2023-08-12T00:26:19;5.85;;;4.45;;
75603;SDS011;64187;51.010;13.792;2023-08-12T00:31:18;7.00;;;4.28;;
75603;SDS011;64187;51.010;13.792;2023-08-12T00:36:18;6.88;;;4.90;;
75603;SDS011;64187;51.010;13.792;2023-08-12T00:41:16;6.30;;;4.25;;
75603;SDS011;64187;51.010;13.792;2023-08-12T00:46:15;6.72;;;5.07;;
75603;SDS011;64187;51.010;13.792;2023-08-12T00:51:15;6.15;;;4.30;;
75603;SDS011;64187;51.010;13.792;2023-08-12T00:56:14;7.00;;;4.63;;
75603;SDS011;64187;51.010;13.792;2023-08-12T01:01:14;7.22;;;4.40;;
75603;SDS011;64187;51.010;13.792;2023-08-12T01:06:13;7.03;;;4.78;;
75603;SDS011;64187;51.010;13.792;2023-08-12T01:11:14;5.75;;;5.20;;
75603;SDS011;64187;51.010;13.792;2023-08-12T01:16:19;5.88;;;4.20;;
75603;SDS011;64187;51.010;13.792;2023-08-12T01:21:21;6.07;;;4.35;;
75603;SDS011;64187;51.010;13.792;2023-08-12T01:26:23;5.30;;;3.70;;
75603;SDS011;64187;51.010;13.792;2023-08-12T01:31:32;6.28;;;4.57;;
75603;SDS011;64187;51.010;13.792;2023-08-12T01:36:37;5.88;;;4.25;;
75603;SDS011;64187;51.010;13.792;2023-08-12T01:41:38;7.15;;;4.70;;
75603;SDS011;64187;51.010;13.792;2023-08-12T01:46:37;5.05;;;4.20;;
75603;SDS011;64187;51.010;13.792;2023-08-12T01:51:36;7.35;;;5.30;;
75603;SDS011;64187;51.010;13.792;2023-08-12T01:56:35;6.57;;;4.13;;
75603;SDS011;64187;51.010;13.792;2023-08-12T02:01:34;5.50;;;4.20;;
75603;SDS011;64187;51.010;13.792;2023-08-12T02:06:33;6.57;;;4.60;;
75603;SDS011;64187;51.010;13.792;2023-08-12T02:11:32;7.22;;;4.50;;
75603;SDS011;64187;51.010;13.792;2023-08-12T02:16:31;6.40;;;3.92;;
75603;SDS011;64187;51.010;13.792;2023-08-12T02:21:30;4.90;;;3.92;;
75603;SDS011;64187;51.010;13.792;2023-08-12T02:26:28;6.45;;;4.18;;
75603;SDS011;64187;51.010;13.792;2023-08-12T02:31:27;6.60;;;4.40;;
75603;SDS011;64187;51.010;13.792;2023-08-12T02:36:26;5.75;;;4.22;;
75603;SDS011;64187;51.010;13.792;2023-08-12T02:41:26;6.45;;;3.95;;
75603;SDS011;64187;51.010;13.792;2023-08-12T02:46:25;7.50;;;4.10;;
75603;SDS011;64187;51.010;13.792;2023-08-12T02:51:24;7.38;;;4.20;;
75603;SDS011;64187;51.010;13.792;2023-08-12T02:56:23;4.50;;;3.78;;
75603;SDS011;64187;51.010;13.792;2023-08-12T03:01:22;4.80;;;4.00;;
75603;SDS011;64187;51.010;13.792;2023-08-12T03:06:21;7.70;;;4.25;;
75603;SDS011;64187;51.010;13.792;2023-08-12T03:11:20;6.28;;;4.40;;
75603;SDS011;64187;51.010;13.792;2023-08-12T03:16:19;4.63;;;4.10;;
75603;SDS011;64187;51.010;13.792;2023-08-12T03:21:18;6.05;;;4.30;;
75603;SDS011;64187;51.010;13.792;2023-08-12T03:26:19;5.90;;;4.07;;
75603;SDS011;64187;51.010;13.792;2023-08-12T03:31:18;9.85;;;5.75;;
75603;SDS011;64187;51.010;13.792;2023-08-12T03:36:18;4.93;;;4.20;;
75603;SDS011;64187;51.010;13.792;2023-08-12T03:41:18;6.18;;;3.97;;
75603;SDS011;64187;51.010;13.792;2023-08-12T03:46:17;5.68;;;4.03;;
75603;SDS011;64187;51.010;13.792;2023-08-12T03:51:17;5.80;;;3.95;;
75603;SDS011;64187;51.010;13.792;2023-08-12T03:56:17;5.28;;;4.07;;
75603;SDS011;64187;51.010;13.792;2023-08-12T04:01:16;4.68;;;4.05;;
75603;SDS011;64187;51.010;13.792;2023-08-12T04:06:15;7.40;;;3.88;;
75603;SDS011;64187;51.010;13.792;2023-08-12T04:11:13;6.30;;;3.78;;
75603;SDS011;64187;51.010;13.792;2023-08-12T04:16:12;7.55;;;4.18;;
75603;SDS011;64187;51.010;13.792;2023-08-12T04:21:12;5.65;;;3.92;;
75603;SDS011;64187;51.010;13.792;2023-08-12T04:26:11;7.13;;;3.58;;
75603;SDS011;64187;51.010;13.792;2023-08-12T04:31:09;5.95;;;4.13;;
75603;SDS011;64187;51.010;13.792;2023-08-12T04:36:12;4.82;;;3.83;;
75603;SDS011;64187;51.010;13.792;2023-08-12T04:41:12;6.88;;;3.80;;
75603;SDS011;64187;51.010;13.792;2023-08-12T04:46:11;4.85;;;3.63;;
75603;SDS011;64187;51.010;13.792;2023-08-12T04:51:10;5.80;;;3.78;;
75603;SDS011;64187;51.010;13.792;2023-08-12T04:56:09;4.88;;;4.07;;
75603;SDS011;64187;51.010;13.792;2023-08-12T05:01:10;6.20;;;3.95;;
75603;SDS011;64187;51.010;13.792;2023-08-12T05:06:09;4.13;;;3.58;;
75603;SDS011;64187;51.010;13.792;2023-08-12T05:11:08;5.45;;;4.00;;
75603;SDS011;64187;51.010;13.792;2023-08-12T05:16:07;6.03;;;4.05;;
75603;SDS011;64187;51.010;13.792;2023-08-12T05:21:06;5.15;;;3.85;;
75603;SDS011;64187;51.010;13.792;2023-08-12T05:37:48;5.35;;;3.47;;
75603;SDS011;64187;51.010;13.792;2023-08-12T05:43:09;4.55;;;1.95;;
75603;SDS011;64187;51.010;13.792;2023-08-12T05:48:08;6.03;;;2.67;;
75603;SDS011;64187;51.010;13.792;2023-08-12T05:53:08;6.05;;;3.30;;
75603;SDS011;64187;51.010;13.792;2023-08-12T05:58:07;4.75;;;3.40;;
75603;SDS011;64187;51.010;13.792;2023-08-12T06:08:40;3.55;;;3.17;;
75603;SDS011;64187;51.010;13.792;2023-08-12T06:30:04;5.72;;;3.42;;
75603;SDS011;64187;51.010;13.792;2023-08-12T06:35:03;6.57;;;4.32;;
75603;SDS011;64187;51.010;13.792;2023-08-12T06:40:03;4.93;;;3.45;;
75603;SDS011;64187;51.010;13.792;2023-08-12T09:25:22;2.70;;;2.50;;
75603;SDS011;64187;51.010;13.792;2023-08-12T09:30:22;3.13;;;2.35;;
75603;SDS011;64187;51.010;13.792;2023-08-12T09:35:20;3.78;;;1.80;;
75603;SDS011;64187;51.010;13.792;2023-08-12T09:40:20;1.92;;;1.73;;
75603;SDS011;64187;51.010;13.792;2023-08-12T10:01:52;2.42;;;2.00;;
75603;SDS011;64187;51.010;13.792;2023-08-12T10:50:58;2.40;;;2.03;;
75603;SDS011;64187;51.010;13.792;2023-08-12T10:55:59;2.97;;;2.50;;
75603;SDS011;64187;51.010;13.792;2023-08-12T11:00:59;2.78;;;2.30;;
75603;SDS011;64187;51.010;13.792;2023-08-12T11:05:59;2.70;;;2.50;;
75603;SDS011;64187;51.010;13.792;2023-08-12T11:10:59;3.72;;;2.88;;
75603;SDS011;64187;51.010;13.792;2023-08-12T12:11:53;6.32;;;2.90;;
75603;SDS011;64187;51.010;13.792;2023-08-12T12:22:11;4.10;;;3.08;;
75603;SDS011;64187;51.010;13.792;2023-08-12T12:27:11;3.83;;;3.25;;
75603;SDS011;64187;51.010;13.792;2023-08-12T12:43:26;4.85;;;3.55;;
75603;SDS011;64187;51.010;13.792;2023-08-12T12:48:25;5.68;;;3.25;;
75603;SDS011;64187;51.010;13.792;2023-08-12T12:53:35;5.38;;;3.40;;
75603;SDS011;64187;51.010;13.792;2023-08-12T12:59:06;4.65;;;4.13;;
75603;SDS011;64187;51.010;13.792;2023-08-12T13:09:47;4.07;;;3.67;;
75603;SDS011;64187;51.010;13.792;2023-08-12T13:25:55;4.20;;;3.80;;
75603;SDS011;64187;51.010;13.792;2023-08-12T13:31:20;7.13;;;4.40;;
75603;SDS011;64187;51.010;13.792;2023-08-12T13:41:55;5.32;;;4.70;;
75603;SDS011;64187;51.010;13.792;2023-08-12T13:57:50;5.80;;;4.43;;
75603;SDS011;64187;51.010;13.792;2023-08-12T14:08:16;6.30;;;4.60;;
75603;SDS011;64187;51.010;13.792;2023-08-12T14:13:30;4.55;;;4.15;;
75603;SDS011;64187;51.010;13.792;2023-08-12T14:18:58;5.10;;;4.60;;
75603;SDS011;64187;51.010;13.792;2023-08-12T14:24:16;4.53;;;3.63;;
75603;SDS011;64187;51.010;13.792;2023-08-12T14:30:19;4.22;;;3.70;;
75603;SDS011;64187;51.010;13.792;2023-08-12T14:35:22;4.32;;;3.67;;
75603;SDS011;64187;51.010;13.792;2023-08-12T14:40:21;4.32;;;3.42;;
75603;SDS011;64187;51.010;13.792;2023-08-12T14:45:26;4.65;;;3.30;;
75603;SDS011;64187;51.010;13.792;2023-08-12T14:50:25;4.85;;;3.03;;
75603;SDS011;64187;51.010;13.792;2023-08-12T14:55:24;5.82;;;3.38;;
75603;SDS011;64187;51.010;13.792;2023-08-12T15:00:23;4.32;;;3.92;;
75603;SDS011;64187;51.010;13.792;2023-08-12T15:05:22;4.60;;;3.50;;
75603;SDS011;64187;51.010;13.792;2023-08-12T15:10:20;4.95;;;3.53;;
75603;SDS011;64187;51.010;13.792;2023-08-12T15:15:21;6.18;;;3.92;;
75603;SDS011;64187;51.010;13.792;2023-08-12T15:20:20;4.53;;;4.13;;
75603;SDS011;64187;51.010;13.792;2023-08-12T15:25:19;3.45;;;3.13;;
75603;SDS011;64187;51.010;13.792;2023-08-12T15:30:18;4.22;;;3.80;;
75603;SDS011;64187;51.010;13.792;2023-08-12T15:35:16;3.75;;;3.33;;
75603;SDS011;64187;51.010;13.792;2023-08-12T15:40:15;3.85;;;3.25;;
75603;SDS011;64187;51.010;13.792;2023-08-12T15:45:14;4.25;;;3.33;;
75603;SDS011;64187;51.010;13.792;2023-08-12T15:50:14;5.03;;;3.65;;
75603;SDS011;64187;51.010;13.792;2023-08-12T15:55:12;3.67;;;3.22;;
75603;SDS011;64187;51.010;13.792;2023-08-12T16:00:11;3.42;;;3.00;;
75603;SDS011;64187;51.010;13.792;2023-08-12T16:05:10;3.33;;;3.03;;
75603;SDS011;64187;51.010;13.792;2023-08-12T16:10:16;4.43;;;3.20;;
75603;SDS011;64187;51.010;13.792;2023-08-12T16:15:15;3.78;;;3.47;;
75603;SDS011;64187;51.010;13.792;2023-08-12T16:20:14;5.18;;;3.70;;
75603;SDS011;64187;51.010;13.792;2023-08-12T16:25:23;4.47;;;3.50;;
75603;SDS011;64187;51.010;13.792;2023-08-12T16:30:54;3.22;;;2.92;;
75603;SDS011;64187;51.010;13.792;2023-08-12T16:35:53;5.72;;;5.15;;
75603;SDS011;64187;51.010;13.792;2023-08-12T16:40:52;4.15;;;3.75;;
75603;SDS011;64187;51.010;13.792;2023-08-12T16:45:51;4.90;;;3.83;;
75603;SDS011;64187;51.010;13.792;2023-08-12T16:50:50;5.53;;;4.00;;
75603;SDS011;64187;51.010;13.792;2023-08-12T16:55:49;4.97;;;3.83;;
75603;SDS011;64187;51.010;13.792;2023-08-12T17:00:48;4.65;;;3.00;;
75603;SDS011;64187;51.010;13.792;2023-08-12T17:05:47;2.75;;;2.13;;
75603;SDS011;64187;51.010;13.792;2023-08-12T17:10:45;2.75;;;2.40;;
75603;SDS011;64187;51.010;13.792;2023-08-12T17:15:44;4.40;;;2.47;;
75603;SDS011;64187;51.010;13.792;2023-08-12T17:20:45;6.40;;;2.78;;
75603;SDS011;64187;51.010;13.792;2023-08-12T17:41:56;5.05;;;2.42;;
75603;SDS011;64187;51.010;13.792;2023-08-12T17:46:55;5.00;;;2.50;;
75603;SDS011;64187;51.010;13.792;2023-08-12T17:51:54;3.75;;;2.03;;
75603;SDS011;64187;51.010;13.792;2023-08-12T18:36:31;4.60;;;2.83;;
75603;SDS011;64187;51.010;13.792;2023-08-12T18:41:30;5.00;;;3.35;;
75603;SDS011;64187;51.010;13.792;2023-08-12T18:46:29;4.95;;;3.53;;
75603;SDS011;64187;51.010;13.792;2023-08-12T18:51:28;7.97;;;3.65;;
75603;SDS011;64187;51.010;13.792;2023-08-12T18:56:26;3.42;;;2.85;;
75603;SDS011;64187;51.010;13.792;2023-08-12T19:01:26;6.88;;;3.67;;
75603;SDS011;64187;51.010;13.792;2023-08-12T19:06:26;5.40;;;3.25;;
75603;SDS011;64187;51.010;13.792;2023-08-12T19:11:24;4.50;;;3.78;;
75603;SDS011;64187;51.010;13.792;2023-08-12T19:16:23;7.38;;;4.10;;
75603;SDS011;64187;51.010;13.792;2023-08-12T19:21:23;5.18;;;4.03;;
75603;SDS011;64187;51.010;13.792;2023-08-12T19:26:22;4.88;;;3.67;;
75603;SDS011;64187;51.010;13.792;2023-08-12T19:31:21;5.97;;;3.78;;
75603;SDS011;64187;51.010;13.792;2023-08-12T19:36:20;4.20;;;3.13;;
75603;SDS011;64187;51.010;13.792;2023-08-12T19:41:19;5.55;;;3.67;;
75603;SDS011;64187;51.010;13.792;2023-08-12T19:46:18;4.68;;;3.28;;
75603;SDS011;64187;51.010;13.792;2023-08-12T19:51:24;5.63;;;3.92;;
75603;SDS011;64187;51.010;13.792;2023-08-12T19:56:23;4.40;;;3.10;;
75603;SDS011;64187;51.010;13.792;2023-08-12T20:01:23;3.05;;;2.72;;
75603;SDS011;64187;51.010;13.792;2023-08-12T20:06:22;5.80;;;3.95;;
75603;SDS011;64187;51.010;13.792;2023-08-12T20:11:21;5.40;;;4.00;;
75603;SDS011;64187;51.010;13.792;2023-08-12T20:16:20;6.70;;;3.67;;
75603;SDS011;64187;51.010;13.792;2023-08-12T20:21:19;6.18;;;3.65;;
75603;SDS011;64187;51.010;13.792;2023-08-12T20:26:18;5.57;;;4.13;;
75603;SDS011;64187;51.010;13.792;2023-08-12T20:31:17;16.88;;;9.05;;
75603;SDS011;64187;51.010;13.792;2023-08-12T20:36:17;7.55;;;3.60;;
75603;SDS011;64187;51.010;13.792;2023-08-12T20:41:18;5.40;;;3.65;;
75603;SDS011;64187;51.010;13.792;2023-08-12T20:46:17;4.38;;;3.60;;
75603;SDS011;64187;51.010;13.792;2023-08-12T20:51:16;8.60;;;5.25;;
75603;SDS011;64187;51.010;13.792;2023-08-12T20:56:15;6.32;;;5.32;;
75603;SDS011;64187;51.010;13.792;2023-08-12T21:01:14;5.50;;;5.00;;
75603;SDS011;64187;51.010;13.792;2023-08-12T21:06:13;6.55;;;4.97;;
75603;SDS011;64187;51.010;13.792;2023-08-12T21:11:12;7.13;;;4.85;;
75603;SDS011;64187;51.010;13.792;2023-08-12T21:16:11;8.73;;;5.35;;
75603;SDS011;64187;51.010;13.792;2023-08-12T21:21:10;7.15;;;5.05;;
75603;SDS011;64187;51.010;13.792;2023-08-12T21:26:09;6.38;;;4.90;;
75603;SDS011;64187;51.010;13.792;2023-08-12T21:31:08;6.68;;;5.45;;
75603;SDS011;64187;51.010;13.792;2023-08-12T21:36:09;6.80;;;5.68;;
75603;SDS011;64187;51.010;13.792;2023-08-12T21:41:08;8.13;;;5.30;;
75603;SDS011;64187;51.010;13.792;2023-08-12T21:46:07;5.82;;;5.15;;
75603;SDS011;64187;51.010;13.792;2023-08-12T21:51:06;5.20;;;4.22;;
75603;SDS011;64187;51.010;13.792;2023-08-12T21:56:07;4.20;;;2.80;;
75603;SDS011;64187;51.010;13.792;2023-08-12T22:01:06;3.72;;;1.95;;
75603;SDS011;64187;51.010;13.792;2023-08-12T22:06:04;2.15;;;1.33;;
75603;SDS011;64187;51.010;13.792;2023-08-12T22:11:03;2.00;;;1.77;;
75603;SDS011;64187;51.010;13.792;2023-08-12T22:16:02;3.05;;;1.80;;
75603;SDS011;64187;51.010;13.792;2023-08-12T22:21:02;3.30;;;2.20;;
75603;SDS011;64187;51.010;13.792;2023-08-12T22:26:02;3.15;;;2.20;;
75603;SDS011;64187;51.010;13.792;2023-08-12T22:31:01;3.30;;;1.73;;
75603;SDS011;64187;51.010;13.792;2023-08-12T22:36:00;2.13;;;1.67;;
75603;SDS011;64187;51.010;13.792;2023-08-12T22:40:59;2.55;;;1.50;;
75603;SDS011;64187;51.010;13.792;2023-08-12T22:45:58;3.17;;;1.13;;
75603;SDS011;64187;51.010;13.792;2023-08-12T22:50:56;4.00;;;1.20;;
75603;SDS011;64187;51.010;13.792;2023-08-12T22:55:55;3.17;;;1.73;;
75603;SDS011;64187;51.010;13.792;2023-08-12T23:00:54;2.67;;;1.52;;
75603;SDS011;64187;51.010;13.792;2023-08-12T23:05:53;1.95;;;1.45;;
75603;SDS011;64187;51.010;13.792;2023-08-12T23:10:52;1.85;;;1.42;;
75603;SDS011;64187;51.010;13.792;2023-08-12T23:15:51;2.08;;;1.17;;
75603;SDS011;64187;51.010;13.792;2023-08-12T23:20:50;2.15;;;1.58;;
75603;SDS011;64187;51.010;13.792;2023-08-12T23:25:49;2.97;;;1.75;;
75603;SDS011;64187;51.010;13.792;2023-08-12T23:30:48;2.50;;;1.55;;
75603;SDS011;64187;51.010;13.792;2023-08-12T23:35:50;4.60;;;1.63;;
75603;SDS011;64187;51.010;13.792;2023-08-12T23:40:48;3.63;;;1.52;;
75603;SDS011;64187;51.010;13.792;2023-08-12T23:45:47;2.47;;;1.42;;
75603;SDS011;64187;51.010;13.792;2023-08-12T23:50:46;4.13;;;2.03;;
75603;SDS011;64187;51.010;13.792;2023-08-12T23:55:45;2.75;;;1.60;;
